Terminal Aerodrome Forecast
Issued by NWS

Home | Current Version | Previous Version | Text Only | Print | Product List | Glossary On
Versions: 1 2 3 4 5 6 7 8 9 10 11 12 13 14
000
FTUS41 KBTV 031729
TAFMSS
TAF
KMSS 031729Z 0318/0418 21006KT P6SM VCSH SCT090 BKN150
     FM032200 11008KT 2SM -SN BR SCT008 OVC015
     FM040600 21009KT 3SM -SN BR SCT003 OVC010
     FM040800 23011KT P6SM VCSH SCT003 OVC008
     FM041000 24012G20KT P6SM SCT025 OVC050=

USA.gov is the U.S. government's official web portal to all federal, state and local government web resources and services.